LTBL/IGI METAR and TAF weather

Enter ICAO airport designator
Station Type Date Time Source
LTBL METAR 2021/07/24 19:50 UTC NOAA

LTBL 241950Z 02013KT 340V050 CAVOK 26/15 Q1008 NOSIG RMK RWY17 02012KT 340V050


Station Type Date Time Source
LTBL Decoded METAR 2021/07/24 19:50 UTC NOAA

Izmir / Cigli, Turkey (LTBL) 38-30N 027-01E 5M
Jul 24, 2021 - 03:50 PM EDT / 2021.07.24 1950 UTC
Wind: from the NNE (020 degrees) at 15 MPH (13 KT) (direction variable):0
Visibility: greater than 7 mile(s):0
Temperature: 78 F (26 C)
Dew Point: 59 F (15 C)
Relative Humidity: 50%
Pressure (altimeter): 29.77 in. Hg (1008 hPa)
ob: LTBL 241950Z 02013KT 340V050 CAVOK 26/15 Q1008 NOSIG RMK RWY17 02012KT 340V050
cycle: 20

Station Type Date Time Source
LTBL TAF UTC NOAA

Error!

Example: see airport list